Main page
METAR-TAF:

METAR-TAF

Airports :

Mikkeli Airport

Mikkeli, Finland

latitude: 61-44N, longitude: 027-18E, elevation: 138 m

Current weather observation

The report was made 35 minutes ago, at 22:50 UTC
Wind 5 kt from the East, varying between Northeast and East/Southeast
Temperature 0°C
Humidity 100%
Pressure 995 hPa
Visibility 10 km or more
Overcast at a height of 500 ft
light rain, snow

METAR: EFMI 152250Z AUTO 09005KT 050V110 9999 -RASN OVC005 00/M00 Q0995

Time: 01:25 (23:25 UTC)


TAF: missing

Weather observations and forecasts of more than 4000 airports (METAR and TAF reports).

The available stations are represented by yellow and red dots on the map.

Hover mouse over dot to see the name of the station.

Then click to see weather observations and forecasts.

To change the map : click on the green buttons with a black cross to zoom in, on the green button with a dash to zoom out, or on the green arrows for adjacent maps.


METAR-TAF: